createdAt,value
2023-02-14T00:01:48.820Z,21.17
2023-02-14T00:04:19.704Z,15.68
2023-02-14T00:06:50.913Z,18.95
2023-02-14T00:09:20.694Z,15.45
2023-02-14T00:11:48.760Z,13.85
2023-02-14T00:14:49.968Z,17.35
2023-02-14T00:17:18.366Z,13.55
2023-02-14T00:19:46.624Z,15.90
2023-02-14T00:22:16.225Z,19.05
2023-02-14T00:24:44.229Z,12.70
2023-02-14T00:27:12.346Z,17.10
2023-02-14T00:29:40.396Z,13.27
2023-02-14T00:32:08.504Z,12.65
2023-02-14T00:34:37.721Z,16.77
2023-02-14T00:37:06.341Z,14.65
2023-02-14T00:39:35.892Z,11.27
2023-02-14T00:42:07.365Z,12.23
2023-02-14T00:44:35.580Z,19.58
2023-02-14T00:47:03.479Z,12.73
2023-02-14T00:49:31.604Z,14.68
2023-02-14T00:52:00.583Z,13.23
2023-02-14T00:54:29.265Z,12.27
2023-02-14T00:57:01.324Z,11.93
2023-02-14T00:59:30.252Z,12.07
2023-02-14T01:01:58.251Z,12.88
2023-02-14T01:04:26.333Z,15.05
2023-02-14T01:06:54.739Z,15.45
2023-02-14T01:09:22.947Z,15.93
2023-02-14T01:11:51.348Z,17.60
2023-02-14T01:14:20.687Z,14.70
2023-02-14T01:16:50.786Z,12.93
2023-02-14T01:19:19.472Z,12.50
2023-02-14T01:21:47.414Z,20.10
2023-02-14T01:24:16.260Z,22.65
2023-02-14T01:26:44.301Z,22.95
2023-02-14T01:29:12.548Z,23.27
2023-02-14T01:31:42.416Z,21.35
2023-02-14T01:34:10.635Z,24.45
2023-02-14T01:36:40.378Z,33.03
2023-02-14T01:39:11.610Z,26.80
2023-02-14T01:41:41.592Z,24.20
2023-02-14T01:44:48.790Z,25.27
2023-02-14T01:47:18.850Z,23.48
2023-02-14T01:49:52.642Z,19.45
2023-02-14T01:52:24.843Z,21.90
2023-02-14T01:54:56.981Z,18.92
2023-02-14T01:57:29.739Z,16.77
2023-02-14T02:00:21.427Z,22.95
2023-02-14T02:02:50.991Z,19.65
2023-02-14T02:05:23.815Z,19.17
2023-02-14T02:07:52.781Z,26.52
2023-02-14T02:10:20.926Z,17.20
2023-02-14T02:12:53.765Z,21.95
2023-02-14T02:15:25.158Z,21.17
2023-02-14T02:18:06.501Z,18.23
2023-02-14T02:21:02.967Z,21.60
2023-02-14T02:24:00.442Z,21.80
2023-02-14T02:27:13.405Z,15.60
2023-02-14T02:30:11.958Z,15.98
2023-02-14T02:33:10.693Z,17.02
2023-02-14T02:35:53.028Z,15.05
2023-02-14T02:38:38.851Z,17.17
2023-02-14T02:41:19.400Z,18.02
2023-02-14T02:43:57.188Z,18.48
2023-02-14T02:46:50.273Z,18.23
2023-02-14T02:49:48.176Z,18.60
2023-02-14T02:52:41.770Z,19.55
2023-02-14T02:55:14.965Z,19.73
2023-02-14T02:57:43.547Z,20.63
2023-02-14T03:00:16.217Z,16.23
2023-02-14T03:03:06.250Z,22.45
2023-02-14T03:05:36.406Z,21.35
2023-02-14T03:08:06.497Z,19.20
2023-02-14T03:10:39.141Z,21.33
2023-02-14T03:13:26.209Z,28.85
2023-02-14T03:16:10.283Z,19.17
2023-02-14T03:19:12.276Z,20.45
2023-02-14T03:21:48.239Z,22.73
2023-02-14T03:24:26.900Z,22.08
2023-02-14T03:27:03.721Z,14.52
2023-02-14T03:29:45.014Z,25.98
2023-02-14T03:32:19.410Z,24.05
2023-02-14T03:34:56.359Z,19.80
2023-02-14T03:37:30.487Z,16.80
2023-02-14T03:40:10.087Z,20.05
2023-02-14T03:42:44.061Z,18.70
2023-02-14T03:45:17.693Z,25.30
2023-02-14T03:47:47.479Z,31.70
2023-02-14T03:50:18.601Z,22.80
2023-02-14T03:52:50.278Z,25.60
2023-02-14T03:55:25.828Z,24.67
2023-02-14T03:57:59.821Z,22.15
2023-02-14T04:00:31.080Z,26.60
2023-02-14T04:03:04.257Z,23.42
2023-02-14T04:05:32.252Z,21.88
2023-02-14T04:08:00.507Z,20.40
2023-02-14T04:10:30.686Z,24.13
2023-02-14T04:12:58.661Z,23.63
2023-02-14T04:15:26.710Z,25.25
2023-02-14T04:18:12.485Z,23.45
2023-02-14T04:20:40.499Z,21.38
2023-02-14T04:23:08.608Z,23.30
2023-02-14T04:25:40.054Z,19.65
2023-02-14T04:28:08.037Z,18.05
2023-02-14T04:30:36.167Z,20.73
2023-02-14T04:33:04.612Z,23.50
2023-02-14T04:35:33.113Z,21.95
2023-02-14T04:38:02.764Z,25.02
2023-02-14T04:40:31.707Z,26.52
2023-02-14T04:43:02.024Z,20.15
2023-02-14T04:45:30.093Z,22.48
2023-02-14T04:47:58.024Z,26.17
2023-02-14T04:50:26.623Z,26.02
2023-02-14T04:52:55.001Z,21.05
2023-02-14T04:55:23.033Z,24.30
2023-02-14T04:57:51.255Z,24.30
2023-02-14T05:00:22.387Z,30.80
2023-02-14T05:02:50.437Z,28.23
2023-02-14T05:05:18.638Z,33.15
2023-02-14T05:07:47.913Z,25.88
2023-02-14T05:10:16.301Z,24.25
2023-02-14T05:12:44.370Z,22.70
2023-02-14T05:15:12.812Z,21.73
2023-02-14T05:17:42.375Z,24.65
2023-02-14T05:20:11.165Z,26.92
2023-02-14T05:22:39.298Z,23.02
2023-02-14T05:25:08.047Z,21.42
2023-02-14T05:27:36.473Z,27.20
2023-02-14T05:30:05.428Z,29.60
2023-02-14T05:32:33.691Z,25.90
2023-02-14T05:35:03.443Z,24.73
2023-02-14T05:37:31.419Z,27.58
2023-02-14T05:39:59.587Z,21.73
2023-02-14T05:42:27.797Z,26.52
2023-02-14T05:44:55.695Z,28.42
2023-02-14T05:47:23.880Z,29.17
2023-02-14T05:49:52.025Z,22.48
2023-02-14T05:52:22.005Z,23.92
2023-02-14T05:54:49.940Z,21.48
2023-02-14T05:57:18.478Z,22.08
2023-02-14T05:59:46.416Z,25.58
2023-02-14T06:02:16.003Z,21.88
2023-02-14T06:04:44.525Z,30.77
2023-02-14T06:07:12.666Z,24.23
2023-02-14T06:09:42.196Z,28.33
2023-02-14T06:12:10.332Z,21.25
2023-02-14T06:14:39.211Z,25.80
2023-02-14T06:17:07.504Z,22.45
2023-02-14T06:19:35.610Z,26.58
2023-02-14T06:22:03.823Z,23.70
2023-02-14T06:24:32.239Z,20.70
2023-02-14T06:27:02.283Z,28.20
2023-02-14T06:29:30.595Z,27.10
2023-02-14T06:32:05.767Z,23.48
2023-02-14T06:34:34.378Z,31.50
2023-02-14T06:37:02.446Z,26.40
2023-02-14T06:39:30.582Z,23.05
2023-02-14T06:41:59.709Z,23.35
2023-02-14T06:44:29.230Z,22.92
2023-02-14T06:46:57.383Z,28.10
2023-02-14T06:49:25.388Z,30.75
2023-02-14T06:51:53.721Z,27.08
2023-02-14T06:54:22.170Z,23.92
2023-02-14T06:56:50.093Z,28.23
2023-02-14T06:59:18.602Z,26.88
2023-02-14T07:01:48.668Z,20.58
2023-02-14T07:04:17.815Z,25.40
2023-02-14T07:06:46.484Z,26.88
2023-02-14T07:09:16.945Z,22.40
2023-02-14T07:11:45.152Z,29.17
2023-02-14T07:14:14.069Z,26.92
2023-02-14T07:16:42.868Z,22.95
2023-02-14T07:19:13.042Z,24.52
2023-02-14T07:21:41.300Z,24.30
2023-02-14T07:24:09.556Z,26.45
2023-02-14T07:26:37.641Z,28.33
2023-02-14T07:29:05.600Z,27.60
2023-02-14T07:31:34.070Z,28.02
2023-02-14T07:34:02.096Z,23.95
2023-02-14T07:36:31.827Z,26.52
2023-02-14T07:38:59.873Z,22.52
2023-02-14T07:41:27.847Z,25.33
2023-02-14T07:43:56.122Z,29.33
2023-02-14T07:46:24.341Z,25.10
2023-02-14T07:48:53.008Z,26.63
2023-02-14T07:51:21.077Z,38.33
2023-02-14T07:53:51.358Z,28.95
2023-02-14T07:56:19.620Z,29.08
2023-02-14T07:58:49.760Z,24.80
2023-02-14T08:01:18.161Z,29.70
2023-02-14T08:03:49.450Z,35.47
2023-02-14T08:06:18.322Z,30.17
2023-02-14T08:08:47.699Z,28.08
2023-02-14T08:11:37.501Z,29.08
2023-02-14T08:14:06.301Z,41.70
2023-02-14T08:16:34.851Z,30.42
2023-02-14T08:19:03.635Z,23.67
2023-02-14T08:21:31.826Z,30.92
2023-02-14T08:24:00.031Z,27.33
2023-02-14T08:26:30.152Z,24.48
2023-02-14T08:28:58.480Z,33.90
2023-02-14T08:31:36.676Z,29.77
2023-02-14T08:34:05.367Z,24.02
2023-02-14T08:36:34.340Z,31.65
2023-02-14T08:39:03.612Z,23.40
2023-02-14T08:41:34.442Z,23.40
2023-02-14T08:44:02.730Z,23.42
2023-02-14T08:46:30.716Z,23.60
2023-02-14T08:48:59.030Z,22.30
2023-02-14T08:51:27.074Z,27.48
2023-02-14T08:53:56.151Z,29.48
2023-02-14T08:56:24.995Z,23.70
2023-02-14T08:58:55.593Z,29.60
2023-02-14T09:01:24.157Z,34.55
2023-02-14T09:03:52.815Z,22.52
2023-02-14T09:06:21.152Z,23.55
2023-02-14T09:08:49.339Z,28.50
2023-02-14T09:11:22.036Z,25.58
2023-02-14T09:13:51.468Z,28.83
2023-02-14T09:16:25.322Z,26.48
2023-02-14T09:18:56.864Z,22.30
2023-02-14T09:21:27.436Z,25.23
2023-02-14T09:23:56.054Z,27.15
2023-02-14T09:26:24.084Z,25.77
2023-02-14T09:28:52.317Z,33.80
2023-02-14T09:31:24.089Z,30.77
2023-02-14T09:33:53.205Z,25.67
2023-02-14T09:36:21.682Z,31.30
2023-02-14T09:38:49.682Z,27.30
2023-02-14T09:41:44.254Z,24.00
2023-02-14T09:44:17.863Z,27.33
2023-02-14T09:46:51.834Z,45.70
2023-02-14T09:49:31.280Z,25.60
2023-02-14T09:52:03.579Z,24.92
2023-02-14T09:54:35.914Z,23.67
2023-02-14T09:57:12.618Z,27.92
2023-02-14T09:59:47.865Z,24.40
2023-02-14T10:02:33.616Z,27.75
2023-02-14T10:05:08.265Z,27.65
2023-02-14T10:07:47.879Z,33.72
2023-02-14T10:10:21.476Z,23.98
2023-02-14T10:12:56.020Z,32.97
2023-02-14T10:15:27.183Z,27.70
2023-02-14T10:18:01.581Z,25.02
2023-02-14T10:20:36.016Z,25.70
2023-02-14T10:23:07.221Z,28.15
2023-02-14T10:25:43.845Z,22.08
2023-02-14T10:28:16.842Z,24.98
2023-02-14T10:31:01.016Z,30.48
2023-02-14T10:33:34.414Z,26.52
2023-02-14T10:36:05.870Z,26.77
2023-02-14T10:38:45.289Z,25.77
2023-02-14T10:41:27.590Z,21.63
2023-02-14T10:44:06.799Z,23.42
2023-02-14T10:46:41.236Z,22.08
2023-02-14T10:49:26.161Z,23.25
2023-02-14T10:51:59.456Z,27.50
2023-02-14T10:54:40.055Z,25.65
2023-02-14T10:57:15.693Z,25.40
2023-02-14T10:59:52.093Z,29.10
2023-02-14T11:02:26.017Z,23.83
2023-02-14T11:04:57.386Z,25.90
2023-02-14T11:07:26.094Z,33.45
2023-02-14T11:09:54.178Z,23.35
2023-02-14T11:12:40.044Z,23.95
2023-02-14T11:15:20.876Z,25.17
2023-02-14T11:17:49.947Z,24.10
2023-02-14T11:20:30.767Z,25.77
2023-02-14T11:22:59.094Z,26.85
2023-02-14T11:25:31.324Z,26.67
2023-02-14T11:28:03.100Z,27.20
2023-02-14T11:30:37.110Z,24.42
2023-02-14T11:33:05.775Z,29.45
2023-02-14T11:35:37.150Z,22.52
2023-02-14T11:38:08.484Z,21.40
2023-02-14T11:40:38.968Z,27.85
2023-02-14T11:43:20.863Z,23.38
2023-02-14T11:45:50.254Z,25.80
2023-02-14T11:48:31.523Z,22.95
2023-02-14T11:51:10.387Z,25.75
2023-02-14T11:53:47.200Z,25.63
2023-02-14T11:56:16.386Z,25.17
2023-02-14T11:58:50.128Z,24.25
2023-02-14T12:01:25.282Z,27.02
2023-02-14T12:03:55.930Z,27.25
2023-02-14T12:06:27.816Z,25.65
2023-02-14T12:09:14.420Z,26.52
2023-02-14T12:11:42.915Z,29.73
2023-02-14T12:14:22.729Z,32.50
2023-02-14T12:16:58.186Z,28.60
2023-02-14T12:19:35.976Z,26.77
2023-02-14T12:22:08.262Z,28.13
2023-02-14T12:24:39.565Z,28.33
2023-02-14T12:27:20.249Z,22.77
2023-02-14T12:29:53.313Z,27.48
2023-02-14T12:32:24.974Z,26.30
2023-02-14T12:34:58.359Z,26.70
2023-02-14T12:37:50.811Z,22.95
2023-02-14T12:40:33.010Z,24.77
2023-02-14T12:43:13.710Z,28.70
2023-02-14T12:46:03.843Z,27.77
2023-02-14T12:48:44.190Z,27.48
2023-02-14T12:51:17.888Z,24.80
2023-02-14T12:54:03.448Z,23.80
2023-02-14T12:56:42.420Z,25.33
2023-02-14T12:59:22.188Z,33.65
2023-02-14T13:02:07.766Z,25.70
2023-02-14T13:04:53.327Z,22.83
2023-02-14T13:07:38.234Z,23.48
2023-02-14T13:10:18.249Z,28.27
2023-02-14T13:12:52.776Z,28.17
2023-02-14T13:15:34.642Z,31.20
2023-02-14T13:18:12.090Z,27.35
2023-02-14T13:20:48.904Z,28.63
2023-02-14T13:23:21.725Z,27.88
2023-02-14T13:25:55.704Z,24.05
2023-02-14T13:28:25.606Z,25.55
2023-02-14T13:30:56.263Z,26.42
2023-02-14T13:33:29.349Z,33.20
2023-02-14T13:36:01.846Z,27.00
2023-02-14T13:38:33.095Z,28.10
2023-02-14T13:41:05.477Z,28.00
2023-02-14T13:43:51.841Z,27.92
2023-02-14T13:46:22.397Z,38.88
2023-02-14T13:48:59.894Z,22.27
2023-02-14T13:51:48.703Z,30.88
2023-02-14T13:54:31.178Z,30.52
2023-02-14T13:57:02.481Z,29.30
2023-02-14T13:59:33.057Z,31.73
2023-02-14T14:02:32.998Z,25.67
2023-02-14T14:05:01.994Z,29.85
2023-02-14T14:07:31.445Z,31.60
2023-02-14T14:10:05.044Z,26.27
2023-02-14T14:12:46.090Z,32.13
2023-02-14T14:15:20.528Z,28.88
2023-02-14T14:18:05.178Z,28.83
2023-02-14T14:20:49.282Z,35.28
2023-02-14T14:23:31.281Z,32.45
2023-02-14T14:26:01.281Z,32.05
2023-02-14T14:28:33.452Z,28.95
2023-02-14T14:31:02.043Z,38.90
2023-02-14T14:33:32.992Z,33.28
2023-02-14T14:36:06.045Z,30.70
2023-02-14T14:38:46.606Z,36.20
2023-02-14T14:41:14.940Z,30.75
2023-02-14T14:43:45.157Z,30.10
2023-02-14T14:46:14.546Z,30.90
2023-02-14T14:48:45.927Z,28.73
2023-02-14T14:51:23.737Z,30.23
2023-02-14T14:53:55.890Z,30.77
2023-02-14T14:56:26.670Z,29.27
2023-02-14T14:58:57.133Z,25.08
2023-02-14T15:01:37.345Z,26.58
2023-02-14T15:04:13.297Z,27.00
2023-02-14T15:06:42.263Z,28.08
2023-02-14T15:09:16.160Z,30.63
2023-02-14T15:12:04.322Z,29.70
2023-02-14T15:14:42.440Z,30.83
2023-02-14T15:17:19.293Z,29.60
2023-02-14T15:19:51.070Z,32.00
2023-02-14T15:22:21.721Z,35.85
2023-02-14T15:24:50.613Z,29.15
2023-02-14T15:27:21.679Z,28.70
2023-02-14T15:29:59.351Z,35.58
2023-02-14T15:32:31.171Z,31.52
2023-02-14T15:35:00.721Z,33.55
2023-02-14T15:37:29.240Z,28.42
2023-02-14T15:39:59.539Z,25.27
2023-02-14T15:42:31.669Z,31.80
2023-02-14T15:45:18.184Z,26.65
2023-02-14T15:47:50.817Z,27.63
2023-02-14T15:50:24.264Z,28.95
2023-02-14T15:52:53.915Z,23.42
2023-02-14T15:55:26.532Z,30.08
2023-02-14T15:57:57.794Z,32.22
2023-02-14T16:00:28.201Z,30.13
2023-02-14T16:03:00.856Z,33.13
2023-02-14T16:05:29.497Z,31.67
2023-02-14T16:07:59.465Z,31.05
2023-02-14T16:10:29.440Z,24.92
2023-02-14T16:13:00.527Z,27.20
2023-02-14T16:15:32.969Z,29.02
2023-02-14T16:18:07.645Z,29.00
2023-02-14T16:20:41.933Z,30.38
2023-02-14T16:23:18.928Z,35.30
2023-02-14T16:25:47.956Z,30.70
2023-02-14T16:28:16.864Z,31.42
2023-02-14T16:30:49.300Z,24.85
2023-02-14T16:33:22.020Z,31.80
2023-02-14T16:35:51.107Z,28.20
2023-02-14T16:38:21.181Z,30.65
2023-02-14T16:40:51.698Z,34.33
2023-02-14T16:43:21.484Z,30.83
2023-02-14T16:45:51.107Z,41.10
2023-02-14T16:48:19.739Z,33.28
2023-02-14T16:50:48.707Z,33.75
2023-02-14T16:53:27.141Z,41.53
2023-02-14T16:55:58.192Z,34.08
2023-02-14T16:58:31.129Z,35.75
2023-02-14T17:01:01.209Z,34.60
2023-02-14T17:03:29.731Z,39.22
2023-02-14T17:05:59.455Z,36.90
2023-02-14T17:08:27.875Z,40.72
2023-02-14T17:10:57.689Z,37.28
2023-02-14T17:13:28.241Z,44.72
2023-02-14T17:15:57.466Z,45.78
2023-02-14T17:18:27.462Z,43.25
2023-02-14T17:20:56.414Z,36.70
2023-02-14T17:23:24.764Z,40.60
2023-02-14T17:25:53.006Z,40.28
2023-02-14T17:28:21.352Z,40.38
2023-02-14T17:30:49.655Z,39.72
2023-02-14T17:33:17.883Z,40.35
2023-02-14T17:35:47.369Z,39.25
2023-02-14T17:38:16.467Z,43.97
2023-02-14T17:40:44.527Z,51.95
2023-02-14T17:43:12.550Z,44.83
2023-02-14T17:45:41.064Z,53.88
2023-02-14T17:48:11.674Z,44.65
2023-02-14T17:50:40.022Z,41.72
2023-02-14T17:53:09.723Z,41.92
2023-02-14T17:55:38.817Z,51.00
2023-02-14T17:58:06.933Z,45.30
2023-02-14T18:00:35.678Z,42.45
2023-02-14T18:03:04.209Z,44.38
2023-02-14T18:05:32.616Z,48.95
2023-02-14T18:08:00.727Z,54.88
2023-02-14T18:10:30.232Z,39.03
2023-02-14T18:12:58.718Z,48.70
2023-02-14T18:15:27.769Z,55.90
2023-02-14T18:17:56.166Z,48.20
2023-02-14T18:20:24.548Z,57.25
2023-02-14T18:22:52.501Z,51.40
2023-02-14T18:25:20.856Z,49.33
2023-02-14T18:27:50.489Z,52.55
2023-02-14T18:30:19.372Z,49.00
2023-02-14T18:32:47.971Z,44.72
2023-02-14T18:35:16.534Z,48.28
2023-02-14T18:37:44.730Z,46.75
2023-02-14T18:40:20.265Z,58.60
2023-02-14T18:42:48.502Z,58.05
2023-02-14T18:45:18.491Z,62.33
2023-02-14T18:47:46.937Z,56.42
2023-02-14T18:50:15.490Z,51.63
2023-02-14T18:52:43.596Z,54.35
2023-02-14T18:55:13.698Z,53.63
2023-02-14T18:57:41.749Z,56.78
2023-02-14T19:00:12.384Z,63.40
2023-02-14T19:02:42.004Z,55.53
2023-02-14T19:05:11.557Z,54.25
2023-02-14T19:07:39.930Z,61.38
2023-02-14T19:10:09.369Z,52.17
2023-02-14T19:12:37.837Z,57.25
2023-02-14T19:15:07.027Z,56.42
2023-02-14T19:17:36.478Z,60.58
2023-02-14T19:20:08.755Z,53.00
2023-02-14T19:22:40.246Z,68.07
2023-02-14T19:25:09.044Z,56.78
2023-02-14T19:27:37.352Z,60.00
2023-02-14T19:30:06.616Z,56.63
2023-02-14T19:32:35.005Z,58.15
2023-02-14T19:35:03.078Z,58.72
2023-02-14T19:37:33.161Z,53.08
2023-02-14T19:40:01.651Z,55.67
2023-02-14T19:42:29.783Z,67.55
2023-02-14T19:44:58.200Z,55.42
2023-02-14T19:47:39.885Z,52.53
2023-02-14T19:50:14.571Z,63.20
2023-02-14T19:52:44.682Z,68.03
2023-02-14T19:55:22.516Z,55.08
2023-02-14T19:57:50.566Z,59.20
2023-02-14T20:00:21.143Z,64.63
2023-02-14T20:02:49.512Z,66.40
2023-02-14T20:05:18.830Z,59.92
2023-02-14T20:07:52.015Z,55.90
2023-02-14T20:10:21.405Z,74.88
2023-02-14T20:12:49.672Z,73.03
2023-02-14T20:15:18.088Z,71.40
2023-02-14T20:17:46.185Z,56.20
2023-02-14T20:20:16.093Z,66.65
2023-02-14T20:22:44.406Z,64.82
2023-02-14T20:25:14.102Z,54.65
2023-02-14T20:27:42.370Z,59.55
2023-02-14T20:30:11.591Z,69.05
2023-02-14T20:32:39.639Z,71.00
2023-02-14T20:35:08.608Z,64.68
2023-02-14T20:37:36.806Z,61.38
2023-02-14T20:40:07.084Z,64.45
2023-02-14T20:42:38.313Z,69.35
2023-02-14T20:45:07.101Z,62.50
2023-02-14T20:47:35.400Z,61.22
2023-02-14T20:50:03.911Z,64.43
2023-02-14T20:52:31.954Z,49.40
2023-02-14T20:55:00.197Z,54.85
2023-02-14T20:57:29.874Z,52.17
2023-02-14T20:59:59.503Z,46.20
2023-02-14T21:02:27.843Z,55.25
2023-02-14T21:05:00.237Z,53.08
2023-02-14T21:07:30.825Z,69.07
2023-02-14T21:09:59.089Z,56.45
2023-02-14T21:12:27.151Z,57.78
2023-02-14T21:14:55.210Z,58.08
2023-02-14T21:17:24.583Z,57.55
2023-02-14T21:19:53.164Z,60.83
2023-02-14T21:22:21.785Z,58.80
2023-02-14T21:24:50.199Z,64.07
2023-02-14T21:27:18.307Z,60.72
2023-02-14T21:29:46.204Z,67.60
2023-02-14T21:32:14.959Z,64.28
2023-02-14T21:34:45.008Z,53.85
2023-02-14T21:37:13.462Z,57.00
2023-02-14T21:39:41.775Z,52.97
2023-02-14T21:42:11.988Z,58.60
2023-02-14T21:44:57.800Z,52.70
2023-02-14T21:47:26.367Z,62.13
2023-02-14T21:50:13.161Z,56.40
2023-02-14T21:52:41.769Z,61.38
2023-02-14T21:55:10.538Z,66.28
2023-02-14T21:57:38.982Z,61.70
2023-02-14T22:00:09.676Z,57.65
2023-02-14T22:02:40.642Z,62.33
2023-02-14T22:05:10.098Z,69.22
2023-02-14T22:07:38.404Z,66.47
2023-02-14T22:10:07.564Z,65.10
2023-02-14T22:12:35.815Z,88.60
2023-02-14T22:15:04.441Z,75.10
2023-02-14T22:17:34.053Z,68.93
2023-02-14T22:20:02.486Z,60.65
2023-02-14T22:22:34.062Z,70.03
2023-02-14T22:25:02.654Z,69.30
2023-02-14T22:27:31.215Z,71.18
2023-02-14T22:29:59.372Z,66.03
2023-02-14T22:32:27.358Z,58.35
2023-02-14T22:34:55.877Z,69.18
2023-02-14T22:37:23.872Z,72.05
2023-02-14T22:39:53.254Z,59.78
2023-02-14T22:42:21.302Z,68.32
2023-02-14T22:44:49.295Z,81.32
2023-02-14T22:47:17.748Z,77.75
2023-02-14T22:49:45.932Z,78.03
2023-02-14T22:52:13.848Z,71.70
2023-02-14T22:54:42.077Z,69.57
2023-02-14T22:57:11.417Z,65.32
2023-02-14T22:59:40.230Z,70.40
2023-02-14T23:02:09.853Z,68.38
2023-02-14T23:04:38.305Z,62.88
2023-02-14T23:07:06.248Z,65.40
2023-02-14T23:09:34.510Z,60.65
2023-02-14T23:12:02.674Z,66.10
2023-02-14T23:14:49.504Z,65.68
2023-02-14T23:17:34.885Z,69.05
2023-02-14T23:20:20.889Z,72.05
2023-02-14T23:22:49.362Z,63.38
2023-02-14T23:25:17.683Z,66.80
2023-02-14T23:27:47.552Z,69.95
2023-02-14T23:30:20.435Z,70.50
2023-02-14T23:32:48.418Z,67.35
2023-02-14T23:35:17.480Z,68.55
2023-02-14T23:37:45.817Z,66.10
2023-02-14T23:40:14.179Z,61.28
2023-02-14T23:42:42.268Z,62.88
2023-02-14T23:45:27.866Z,58.28
2023-02-14T23:47:57.556Z,73.07
2023-02-14T23:50:26.090Z,67.00
2023-02-14T23:52:54.178Z,69.18
2023-02-14T23:55:22.569Z,69.45
2023-02-14T23:57:50.627Z,73.55
